sensor_id;sensor_type;location;lat;lon;timestamp;P1;durP1;ratioP1;P2;durP2;ratioP2
36301;SDS011;22334;53.022;18.606;2022-09-29T00:02:08;12.27;;;8.35;;
36301;SDS011;22334;53.022;18.606;2022-09-29T00:04:34;11.85;;;7.60;;
36301;SDS011;22334;53.022;18.606;2022-09-29T00:06:59;13.00;;;8.02;;
36301;SDS011;22334;53.022;18.606;2022-09-29T00:09:25;12.35;;;8.80;;
36301;SDS011;22334;53.022;18.606;2022-09-29T00:11:52;11.38;;;7.60;;
36301;SDS011;22334;53.022;18.606;2022-09-29T00:14:19;13.63;;;8.25;;
36301;SDS011;22334;53.022;18.606;2022-09-29T00:16:44;13.10;;;8.93;;
36301;SDS011;22334;53.022;18.606;2022-09-29T00:19:10;13.48;;;9.00;;
36301;SDS011;22334;53.022;18.606;2022-09-29T00:21:35;15.18;;;9.98;;
36301;SDS011;22334;53.022;18.606;2022-09-29T00:24:01;15.48;;;9.48;;
36301;SDS011;22334;53.022;18.606;2022-09-29T00:26:26;17.02;;;10.02;;
36301;SDS011;22334;53.022;18.606;2022-09-29T00:28:56;15.77;;;10.27;;
36301;SDS011;22334;53.022;18.606;2022-09-29T00:31:22;16.63;;;10.30;;
36301;SDS011;22334;53.022;18.606;2022-09-29T00:33:49;17.30;;;10.48;;
36301;SDS011;22334;53.022;18.606;2022-09-29T00:36:15;21.95;;;11.32;;
36301;SDS011;22334;53.022;18.606;2022-09-29T00:38:42;16.80;;;10.48;;
36301;SDS011;22334;53.022;18.606;2022-09-29T00:41:18;16.17;;;10.85;;
36301;SDS011;22334;53.022;18.606;2022-09-29T00:44:04;17.70;;;10.68;;
36301;SDS011;22334;53.022;18.606;2022-09-29T00:46:46;14.77;;;9.88;;
36301;SDS011;22334;53.022;18.606;2022-09-29T00:49:18;17.42;;;10.20;;
36301;SDS011;22334;53.022;18.606;2022-09-29T00:51:45;16.27;;;10.02;;
36301;SDS011;22334;53.022;18.606;2022-09-29T00:54:14;14.18;;;9.45;;
36301;SDS011;22334;53.022;18.606;2022-09-29T00:56:40;14.45;;;9.32;;
36301;SDS011;22334;53.022;18.606;2022-09-29T00:59:08;15.90;;;9.57;;
36301;SDS011;22334;53.022;18.606;2022-09-29T01:01:35;16.23;;;9.25;;
36301;SDS011;22334;53.022;18.606;2022-09-29T01:04:03;15.10;;;9.45;;
36301;SDS011;22334;53.022;18.606;2022-09-29T01:07:03;14.05;;;10.10;;
36301;SDS011;22334;53.022;18.606;2022-09-29T01:09:31;14.30;;;9.35;;
36301;SDS011;22334;53.022;18.606;2022-09-29T01:11:59;14.73;;;9.88;;
36301;SDS011;22334;53.022;18.606;2022-09-29T01:14:25;15.07;;;8.75;;
36301;SDS011;22334;53.022;18.606;2022-09-29T01:16:52;15.00;;;9.55;;
36301;SDS011;22334;53.022;18.606;2022-09-29T01:24:53;14.30;;;8.93;;
36301;SDS011;22334;53.022;18.606;2022-09-29T01:41:02;12.35;;;8.10;;
36301;SDS011;22334;53.022;18.606;2022-09-29T01:43:46;11.88;;;7.65;;
36301;SDS011;22334;53.022;18.606;2022-09-29T01:46:21;12.45;;;8.85;;
36301;SDS011;22334;53.022;18.606;2022-09-29T01:48:49;13.52;;;8.68;;
36301;SDS011;22334;53.022;18.606;2022-09-29T01:51:18;13.82;;;8.52;;
36301;SDS011;22334;53.022;18.606;2022-09-29T01:53:54;13.40;;;8.40;;
36301;SDS011;22334;53.022;18.606;2022-09-29T01:56:32;13.20;;;8.52;;
36301;SDS011;22334;53.022;18.606;2022-09-29T01:59:04;17.60;;;9.25;;
36301;SDS011;22334;53.022;18.606;2022-09-29T02:01:36;12.40;;;8.88;;
36301;SDS011;22334;53.022;18.606;2022-09-29T02:04:04;13.77;;;9.18;;
36301;SDS011;22334;53.022;18.606;2022-09-29T02:06:53;12.68;;;7.97;;
36301;SDS011;22334;53.022;18.606;2022-09-29T02:09:27;12.20;;;8.30;;
36301;SDS011;22334;53.022;18.606;2022-09-29T02:11:54;13.63;;;8.70;;
36301;SDS011;22334;53.022;18.606;2022-09-29T02:14:22;11.40;;;8.18;;
36301;SDS011;22334;53.022;18.606;2022-09-29T02:16:54;13.48;;;9.00;;
36301;SDS011;22334;53.022;18.606;2022-09-29T02:19:26;13.18;;;9.20;;
36301;SDS011;22334;53.022;18.606;2022-09-29T02:21:53;16.52;;;10.73;;
36301;SDS011;22334;53.022;18.606;2022-09-29T02:24:22;15.80;;;9.77;;
36301;SDS011;22334;53.022;18.606;2022-09-29T02:26:49;17.10;;;10.03;;
36301;SDS011;22334;53.022;18.606;2022-09-29T02:29:15;17.23;;;10.77;;
36301;SDS011;22334;53.022;18.606;2022-09-29T02:31:41;14.18;;;9.23;;
36301;SDS011;22334;53.022;18.606;2022-09-29T02:34:09;15.30;;;9.52;;
36301;SDS011;22334;53.022;18.606;2022-09-29T02:42:22;14.45;;;8.98;;
36301;SDS011;22334;53.022;18.606;2022-09-29T02:45:15;11.95;;;7.80;;
36301;SDS011;22334;53.022;18.606;2022-09-29T02:58:30;15.45;;;9.85;;
36301;SDS011;22334;53.022;18.606;2022-09-29T03:00:58;17.88;;;10.23;;
36301;SDS011;22334;53.022;18.606;2022-09-29T03:03:24;18.27;;;11.20;;
36301;SDS011;22334;53.022;18.606;2022-09-29T03:05:50;19.00;;;12.18;;
36301;SDS011;22334;53.022;18.606;2022-09-29T03:08:16;19.70;;;11.93;;
36301;SDS011;22334;53.022;18.606;2022-09-29T03:10:41;23.58;;;12.90;;
36301;SDS011;22334;53.022;18.606;2022-09-29T03:13:06;21.98;;;12.80;;
36301;SDS011;22334;53.022;18.606;2022-09-29T03:15:32;18.85;;;11.88;;
36301;SDS011;22334;53.022;18.606;2022-09-29T03:17:57;19.83;;;11.65;;
36301;SDS011;22334;53.022;18.606;2022-09-29T03:20:23;21.80;;;11.60;;
36301;SDS011;22334;53.022;18.606;2022-09-29T03:22:48;18.73;;;11.80;;
36301;SDS011;22334;53.022;18.606;2022-09-29T03:25:13;20.15;;;12.18;;
36301;SDS011;22334;53.022;18.606;2022-09-29T03:27:39;20.33;;;12.18;;
36301;SDS011;22334;53.022;18.606;2022-09-29T03:30:05;21.92;;;12.25;;
36301;SDS011;22334;53.022;18.606;2022-09-29T03:32:31;20.02;;;12.27;;
36301;SDS011;22334;53.022;18.606;2022-09-29T03:34:56;18.58;;;11.77;;
36301;SDS011;22334;53.022;18.606;2022-09-29T03:37:22;19.77;;;11.90;;
36301;SDS011;22334;53.022;18.606;2022-09-29T03:39:47;20.70;;;13.45;;
36301;SDS011;22334;53.022;18.606;2022-09-29T03:42:12;20.08;;;12.13;;
36301;SDS011;22334;53.022;18.606;2022-09-29T03:44:38;20.92;;;12.60;;
36301;SDS011;22334;53.022;18.606;2022-09-29T03:47:03;20.95;;;13.10;;
36301;SDS011;22334;53.022;18.606;2022-09-29T03:49:28;22.52;;;14.85;;
36301;SDS011;22334;53.022;18.606;2022-09-29T03:51:54;24.80;;;14.20;;
36301;SDS011;22334;53.022;18.606;2022-09-29T03:54:19;24.33;;;14.60;;
36301;SDS011;22334;53.022;18.606;2022-09-29T03:56:44;23.95;;;14.95;;
36301;SDS011;22334;53.022;18.606;2022-09-29T03:59:10;25.88;;;15.13;;
36301;SDS011;22334;53.022;18.606;2022-09-29T04:01:36;24.58;;;15.02;;
36301;SDS011;22334;53.022;18.606;2022-09-29T04:04:02;24.08;;;15.02;;
36301;SDS011;22334;53.022;18.606;2022-09-29T04:06:28;23.20;;;14.70;;
36301;SDS011;22334;53.022;18.606;2022-09-29T04:08:53;23.45;;;14.50;;
36301;SDS011;22334;53.022;18.606;2022-09-29T04:11:18;25.38;;;14.93;;
36301;SDS011;22334;53.022;18.606;2022-09-29T04:13:44;26.23;;;14.82;;
36301;SDS011;22334;53.022;18.606;2022-09-29T04:16:09;24.30;;;16.15;;
36301;SDS011;22334;53.022;18.606;2022-09-29T04:18:35;25.77;;;16.50;;
36301;SDS011;22334;53.022;18.606;2022-09-29T04:21:04;24.98;;;16.55;;
36301;SDS011;22334;53.022;18.606;2022-09-29T04:23:30;24.55;;;16.35;;
36301;SDS011;22334;53.022;18.606;2022-09-29T04:25:56;24.30;;;15.15;;
36301;SDS011;22334;53.022;18.606;2022-09-29T04:28:22;25.52;;;15.88;;
36301;SDS011;22334;53.022;18.606;2022-09-29T04:30:48;26.45;;;15.93;;
36301;SDS011;22334;53.022;18.606;2022-09-29T04:33:13;24.40;;;15.30;;
36301;SDS011;22334;53.022;18.606;2022-09-29T04:35:39;27.33;;;15.75;;
36301;SDS011;22334;53.022;18.606;2022-09-29T04:38:04;24.48;;;15.27;;
36301;SDS011;22334;53.022;18.606;2022-09-29T04:40:32;27.00;;;16.60;;
36301;SDS011;22334;53.022;18.606;2022-09-29T04:42:57;26.42;;;15.70;;
36301;SDS011;22334;53.022;18.606;2022-09-29T04:45:23;24.30;;;14.80;;
36301;SDS011;22334;53.022;18.606;2022-09-29T04:47:48;25.75;;;16.67;;
36301;SDS011;22334;53.022;18.606;2022-09-29T04:50:13;26.70;;;15.38;;
36301;SDS011;22334;53.022;18.606;2022-09-29T04:52:40;29.27;;;17.50;;
36301;SDS011;22334;53.022;18.606;2022-09-29T04:55:07;28.30;;;16.10;;
36301;SDS011;22334;53.022;18.606;2022-09-29T04:57:35;28.10;;;15.25;;
36301;SDS011;22334;53.022;18.606;2022-09-29T05:00:01;22.98;;;15.43;;
36301;SDS011;22334;53.022;18.606;2022-09-29T05:02:28;23.23;;;14.68;;
36301;SDS011;22334;53.022;18.606;2022-09-29T05:04:53;24.13;;;15.02;;
36301;SDS011;22334;53.022;18.606;2022-09-29T05:07:19;24.48;;;15.00;;
36301;SDS011;22334;53.022;18.606;2022-09-29T05:09:44;24.48;;;15.63;;
36301;SDS011;22334;53.022;18.606;2022-09-29T05:12:10;30.13;;;15.82;;
36301;SDS011;22334;53.022;18.606;2022-09-29T05:14:35;26.05;;;15.65;;
36301;SDS011;22334;53.022;18.606;2022-09-29T05:17:00;27.80;;;16.52;;
36301;SDS011;22334;53.022;18.606;2022-09-29T05:19:26;28.35;;;17.35;;
36301;SDS011;22334;53.022;18.606;2022-09-29T05:21:51;28.25;;;16.10;;
36301;SDS011;22334;53.022;18.606;2022-09-29T05:24:17;26.88;;;16.45;;
36301;SDS011;22334;53.022;18.606;2022-09-29T05:26:42;27.33;;;16.45;;
36301;SDS011;22334;53.022;18.606;2022-09-29T05:29:07;28.55;;;16.55;;
36301;SDS011;22334;53.022;18.606;2022-09-29T05:31:33;25.40;;;15.77;;
36301;SDS011;22334;53.022;18.606;2022-09-29T05:33:58;28.35;;;16.38;;
36301;SDS011;22334;53.022;18.606;2022-09-29T05:36:23;27.33;;;16.55;;
36301;SDS011;22334;53.022;18.606;2022-09-29T05:38:49;26.58;;;16.23;;
36301;SDS011;22334;53.022;18.606;2022-09-29T05:41:14;26.20;;;16.40;;
36301;SDS011;22334;53.022;18.606;2022-09-29T05:43:46;26.55;;;16.25;;
36301;SDS011;22334;53.022;18.606;2022-09-29T05:46:12;27.70;;;16.38;;
36301;SDS011;22334;53.022;18.606;2022-09-29T05:48:38;26.75;;;15.95;;
36301;SDS011;22334;53.022;18.606;2022-09-29T05:51:09;32.45;;;17.45;;
36301;SDS011;22334;53.022;18.606;2022-09-29T05:53:35;31.15;;;18.08;;
36301;SDS011;22334;53.022;18.606;2022-09-29T05:56:07;29.02;;;17.52;;
36301;SDS011;22334;53.022;18.606;2022-09-29T05:58:35;25.17;;;16.20;;
36301;SDS011;22334;53.022;18.606;2022-09-29T06:01:04;32.83;;;19.48;;
36301;SDS011;22334;53.022;18.606;2022-09-29T06:03:35;27.92;;;17.42;;
36301;SDS011;22334;53.022;18.606;2022-09-29T06:06:10;29.83;;;17.85;;
36301;SDS011;22334;53.022;18.606;2022-09-29T06:08:37;26.65;;;16.50;;
36301;SDS011;22334;53.022;18.606;2022-09-29T06:11:04;27.45;;;16.98;;
36301;SDS011;22334;53.022;18.606;2022-09-29T06:13:36;24.98;;;16.58;;
36301;SDS011;22334;53.022;18.606;2022-09-29T06:16:02;29.13;;;17.08;;
36301;SDS011;22334;53.022;18.606;2022-09-29T06:18:32;31.90;;;16.98;;
36301;SDS011;22334;53.022;18.606;2022-09-29T06:21:02;27.40;;;17.75;;
36301;SDS011;22334;53.022;18.606;2022-09-29T06:23:32;29.25;;;17.33;;
36301;SDS011;22334;53.022;18.606;2022-09-29T06:25:58;29.10;;;16.08;;
36301;SDS011;22334;53.022;18.606;2022-09-29T06:28:26;26.83;;;15.23;;
36301;SDS011;22334;53.022;18.606;2022-09-29T06:30:51;24.90;;;15.05;;
36301;SDS011;22334;53.022;18.606;2022-09-29T06:33:17;25.25;;;15.05;;
36301;SDS011;22334;53.022;18.606;2022-09-29T06:35:45;22.83;;;13.90;;
36301;SDS011;22334;53.022;18.606;2022-09-29T06:38:29;24.75;;;14.25;;
36301;SDS011;22334;53.022;18.606;2022-09-29T06:40:55;25.02;;;15.05;;
36301;SDS011;22334;53.022;18.606;2022-09-29T06:43:20;31.08;;;15.38;;
36301;SDS011;22334;53.022;18.606;2022-09-29T06:45:46;25.20;;;14.65;;
36301;SDS011;22334;53.022;18.606;2022-09-29T06:48:11;22.52;;;13.95;;
36301;SDS011;22334;53.022;18.606;2022-09-29T06:50:36;31.58;;;13.15;;
36301;SDS011;22334;53.022;18.606;2022-09-29T06:53:02;30.25;;;13.50;;
36301;SDS011;22334;53.022;18.606;2022-09-29T06:55:27;19.75;;;13.80;;
36301;SDS011;22334;53.022;18.606;2022-09-29T06:57:53;25.27;;;12.63;;
36301;SDS011;22334;53.022;18.606;2022-09-29T07:00:18;22.42;;;13.68;;
36301;SDS011;22334;53.022;18.606;2022-09-29T07:02:44;17.83;;;11.88;;
36301;SDS011;22334;53.022;18.606;2022-09-29T07:05:11;31.65;;;12.27;;
36301;SDS011;22334;53.022;18.606;2022-09-29T07:07:36;33.55;;;13.57;;
36301;SDS011;22334;53.022;18.606;2022-09-29T07:10:02;26.05;;;13.27;;
36301;SDS011;22334;53.022;18.606;2022-09-29T07:12:27;23.00;;;11.88;;
36301;SDS011;22334;53.022;18.606;2022-09-29T07:14:54;22.92;;;12.02;;
36301;SDS011;22334;53.022;18.606;2022-09-29T07:17:20;23.40;;;12.30;;
36301;SDS011;22334;53.022;18.606;2022-09-29T07:20:01;23.27;;;12.48;;
36301;SDS011;22334;53.022;18.606;2022-09-29T07:22:26;18.02;;;11.07;;
36301;SDS011;22334;53.022;18.606;2022-09-29T07:24:52;25.38;;;11.57;;
36301;SDS011;22334;53.022;18.606;2022-09-29T07:27:19;21.60;;;13.57;;
36301;SDS011;22334;53.022;18.606;2022-09-29T07:29:48;26.83;;;12.73;;
36301;SDS011;22334;53.022;18.606;2022-09-29T07:32:14;21.88;;;12.95;;
36301;SDS011;22334;53.022;18.606;2022-09-29T07:34:44;26.00;;;13.50;;
36301;SDS011;22334;53.022;18.606;2022-09-29T07:37:10;24.95;;;12.75;;
36301;SDS011;22334;53.022;18.606;2022-09-29T07:39:35;17.27;;;12.63;;
36301;SDS011;22334;53.022;18.606;2022-09-29T07:42:01;25.40;;;13.40;;
36301;SDS011;22334;53.022;18.606;2022-09-29T07:44:27;19.40;;;11.45;;
36301;SDS011;22334;53.022;18.606;2022-09-29T07:46:54;22.77;;;12.50;;
36301;SDS011;22334;53.022;18.606;2022-09-29T07:49:19;33.42;;;13.65;;
36301;SDS011;22334;53.022;18.606;2022-09-29T07:51:44;22.50;;;12.20;;
36301;SDS011;22334;53.022;18.606;2022-09-29T07:54:10;21.25;;;12.88;;
36301;SDS011;22334;53.022;18.606;2022-09-29T07:56:35;22.10;;;13.65;;
36301;SDS011;22334;53.022;18.606;2022-09-29T07:59:01;17.75;;;12.30;;
36301;SDS011;22334;53.022;18.606;2022-09-29T08:01:28;18.70;;;11.52;;
36301;SDS011;22334;53.022;18.606;2022-09-29T08:03:54;19.25;;;11.88;;
36301;SDS011;22334;53.022;18.606;2022-09-29T08:06:20;21.00;;;11.23;;
36301;SDS011;22334;53.022;18.606;2022-09-29T08:08:46;16.23;;;10.88;;
36301;SDS011;22334;53.022;18.606;2022-09-29T08:11:13;19.90;;;11.77;;
36301;SDS011;22334;53.022;18.606;2022-09-29T08:13:40;21.83;;;11.90;;
36301;SDS011;22334;53.022;18.606;2022-09-29T08:16:06;16.38;;;11.90;;
36301;SDS011;22334;53.022;18.606;2022-09-29T08:18:35;18.58;;;10.85;;
36301;SDS011;22334;53.022;18.606;2022-09-29T08:21:00;32.20;;;12.93;;
36301;SDS011;22334;53.022;18.606;2022-09-29T08:23:26;24.33;;;11.65;;
36301;SDS011;22334;53.022;18.606;2022-09-29T08:26:02;18.42;;;11.07;;
36301;SDS011;22334;53.022;18.606;2022-09-29T08:28:29;27.38;;;11.48;;
36301;SDS011;22334;53.022;18.606;2022-09-29T08:30:55;17.67;;;10.63;;
36301;SDS011;22334;53.022;18.606;2022-09-29T08:33:21;20.08;;;11.00;;
36301;SDS011;22334;53.022;18.606;2022-09-29T08:35:53;17.83;;;11.38;;
36301;SDS011;22334;53.022;18.606;2022-09-29T08:38:19;17.80;;;11.75;;
36301;SDS011;22334;53.022;18.606;2022-09-29T08:40:44;27.77;;;13.20;;
36301;SDS011;22334;53.022;18.606;2022-09-29T08:43:13;17.08;;;11.77;;
36301;SDS011;22334;53.022;18.606;2022-09-29T08:45:53;20.30;;;12.13;;
36301;SDS011;22334;53.022;18.606;2022-09-29T08:48:25;18.10;;;10.95;;
36301;SDS011;22334;53.022;18.606;2022-09-29T08:50:54;15.52;;;10.30;;
36301;SDS011;22334;53.022;18.606;2022-09-29T08:53:29;17.85;;;11.18;;
36301;SDS011;22334;53.022;18.606;2022-09-29T08:55:59;21.58;;;12.18;;
36301;SDS011;22334;53.022;18.606;2022-09-29T08:58:27;19.83;;;13.63;;
36301;SDS011;22334;53.022;18.606;2022-09-29T09:03:41;21.10;;;10.75;;
36301;SDS011;22334;53.022;18.606;2022-09-29T09:06:20;15.73;;;10.82;;
36301;SDS011;22334;53.022;18.606;2022-09-29T09:11:40;24.60;;;13.18;;
36301;SDS011;22334;53.022;18.606;2022-09-29T09:17:45;21.85;;;10.57;;
36301;SDS011;22334;53.022;18.606;2022-09-29T09:22:37;15.90;;;9.93;;
36301;SDS011;22334;53.022;18.606;2022-09-29T09:25:19;16.13;;;11.05;;
36301;SDS011;22334;53.022;18.606;2022-09-29T09:28:05;15.50;;;10.13;;
36301;SDS011;22334;53.022;18.606;2022-09-29T09:30:56;15.35;;;9.20;;
36301;SDS011;22334;53.022;18.606;2022-09-29T09:33:33;22.40;;;11.07;;
36301;SDS011;22334;53.022;18.606;2022-09-29T09:41:50;21.35;;;9.73;;
36301;SDS011;22334;53.022;18.606;2022-09-29T09:44:18;16.05;;;12.30;;
36301;SDS011;22334;53.022;18.606;2022-09-29T09:46:47;15.85;;;10.07;;
36301;SDS011;22334;53.022;18.606;2022-09-29T09:52:32;15.73;;;9.35;;
36301;SDS011;22334;53.022;18.606;2022-09-29T09:55:03;12.65;;;8.63;;
36301;SDS011;22334;53.022;18.606;2022-09-29T10:00:09;11.75;;;7.90;;
36301;SDS011;22334;53.022;18.606;2022-09-29T10:02:44;14.30;;;8.52;;
36301;SDS011;22334;53.022;18.606;2022-09-29T10:05:14;11.23;;;7.22;;
36301;SDS011;22334;53.022;18.606;2022-09-29T10:07:42;18.88;;;9.00;;
36301;SDS011;22334;53.022;18.606;2022-09-29T10:10:15;16.98;;;8.73;;
36301;SDS011;22334;53.022;18.606;2022-09-29T10:12:46;17.08;;;8.52;;
36301;SDS011;22334;53.022;18.606;2022-09-29T10:15:17;22.65;;;10.60;;
36301;SDS011;22334;53.022;18.606;2022-09-29T10:17:47;19.77;;;8.68;;
36301;SDS011;22334;53.022;18.606;2022-09-29T10:20:27;12.45;;;5.43;;
36301;SDS011;22334;53.022;18.606;2022-09-29T10:23:16;7.88;;;5.80;;
36301;SDS011;22334;53.022;18.606;2022-09-29T10:25:56;18.67;;;7.53;;
36301;SDS011;22334;53.022;18.606;2022-09-29T10:28:22;8.00;;;5.50;;
36301;SDS011;22334;53.022;18.606;2022-09-29T10:30:49;11.27;;;5.95;;
36301;SDS011;22334;53.022;18.606;2022-09-29T10:33:16;7.72;;;5.65;;
36301;SDS011;22334;53.022;18.606;2022-09-29T10:35:43;7.57;;;5.47;;
36301;SDS011;22334;53.022;18.606;2022-09-29T10:40:58;11.32;;;6.10;;
36301;SDS011;22334;53.022;18.606;2022-09-29T10:45:58;8.38;;;5.38;;
36301;SDS011;22334;53.022;18.606;2022-09-29T10:48:24;8.43;;;5.75;;
36301;SDS011;22334;53.022;18.606;2022-09-29T10:50:57;17.67;;;5.90;;
36301;SDS011;22334;53.022;18.606;2022-09-29T10:53:31;10.85;;;5.00;;
36301;SDS011;22334;53.022;18.606;2022-09-29T10:55:58;10.68;;;5.45;;
36301;SDS011;22334;53.022;18.606;2022-09-29T10:58:39;7.88;;;5.53;;
36301;SDS011;22334;53.022;18.606;2022-09-29T11:01:10;8.80;;;5.70;;
36301;SDS011;22334;53.022;18.606;2022-09-29T11:03:38;11.50;;;6.38;;
36301;SDS011;22334;53.022;18.606;2022-09-29T11:06:07;12.60;;;6.35;;
36301;SDS011;22334;53.022;18.606;2022-09-29T11:14:03;8.93;;;5.88;;
36301;SDS011;22334;53.022;18.606;2022-09-29T11:16:30;8.07;;;5.82;;
36301;SDS011;22334;53.022;18.606;2022-09-29T11:19:07;13.55;;;6.10;;
36301;SDS011;22334;53.022;18.606;2022-09-29T11:30:09;8.65;;;5.95;;
36301;SDS011;22334;53.022;18.606;2022-09-29T11:43:33;10.77;;;6.97;;
36301;SDS011;22334;53.022;18.606;2022-09-29T11:48:55;14.35;;;7.60;;
36301;SDS011;22334;53.022;18.606;2022-09-29T11:54:05;9.32;;;6.60;;
36301;SDS011;22334;53.022;18.606;2022-09-29T11:56:47;11.98;;;6.97;;
36301;SDS011;22334;53.022;18.606;2022-09-29T12:04:54;8.65;;;6.70;;
36301;SDS011;22334;53.022;18.606;2022-09-29T12:10:43;11.93;;;6.68;;
36301;SDS011;22334;53.022;18.606;2022-09-29T12:14:00;11.55;;;8.55;;
36301;SDS011;22334;53.022;18.606;2022-09-29T12:16:11;10.40;;;7.40;;
36301;SDS011;22334;53.022;18.606;2022-09-29T12:24:40;12.82;;;8.48;;
36301;SDS011;22334;53.022;18.606;2022-09-29T12:29:55;13.88;;;9.05;;
36301;SDS011;22334;53.022;18.606;2022-09-29T12:32:33;12.95;;;8.00;;
36301;SDS011;22334;53.022;18.606;2022-09-29T12:35:08;14.20;;;9.02;;
36301;SDS011;22334;53.022;18.606;2022-09-29T12:37:40;11.75;;;8.82;;
36301;SDS011;22334;53.022;18.606;2022-09-29T12:40:24;11.77;;;8.70;;
36301;SDS011;22334;53.022;18.606;2022-09-29T12:45:58;12.85;;;8.48;;
36301;SDS011;22334;53.022;18.606;2022-09-29T12:51:46;13.98;;;10.02;;
36301;SDS011;22334;53.022;18.606;2022-09-29T12:54:24;14.10;;;9.13;;
36301;SDS011;22334;53.022;18.606;2022-09-29T13:11:24;10.90;;;8.37;;
36301;SDS011;22334;53.022;18.606;2022-09-29T13:14:31;16.75;;;9.18;;
36301;SDS011;22334;53.022;18.606;2022-09-29T13:17:28;13.82;;;9.77;;
36301;SDS011;22334;53.022;18.606;2022-09-29T13:28:52;18.90;;;9.15;;
36301;SDS011;22334;53.022;18.606;2022-09-29T13:31:25;14.50;;;9.50;;
36301;SDS011;22334;53.022;18.606;2022-09-29T13:33:56;12.57;;;7.78;;
36301;SDS011;22334;53.022;18.606;2022-09-29T13:39:18;10.90;;;7.50;;
36301;SDS011;22334;53.022;18.606;2022-09-29T13:41:54;10.07;;;6.72;;
36301;SDS011;22334;53.022;18.606;2022-09-29T13:44:26;11.00;;;6.95;;
36301;SDS011;22334;53.022;18.606;2022-09-29T13:46:53;12.88;;;8.48;;
36301;SDS011;22334;53.022;18.606;2022-09-29T13:49:27;15.35;;;10.10;;
36301;SDS011;22334;53.022;18.606;2022-09-29T13:54:39;9.80;;;6.45;;
36301;SDS011;22334;53.022;18.606;2022-09-29T13:59:45;9.93;;;6.40;;
36301;SDS011;22334;53.022;18.606;2022-09-29T14:02:29;9.93;;;6.15;;
36301;SDS011;22334;53.022;18.606;2022-09-29T14:05:00;10.57;;;6.30;;
36301;SDS011;22334;53.022;18.606;2022-09-29T14:10:27;13.80;;;7.25;;
36301;SDS011;22334;53.022;18.606;2022-09-29T14:13:10;12.30;;;6.78;;
36301;SDS011;22334;53.022;18.606;2022-09-29T14:15:42;8.85;;;6.35;;
36301;SDS011;22334;53.022;18.606;2022-09-29T14:18:30;15.35;;;6.75;;
36301;SDS011;22334;53.022;18.606;2022-09-29T14:20:59;9.40;;;5.82;;
36301;SDS011;22334;53.022;18.606;2022-09-29T14:23:46;11.63;;;6.32;;
36301;SDS011;22334;53.022;18.606;2022-09-29T14:29:23;18.52;;;9.90;;
36301;SDS011;22334;53.022;18.606;2022-09-29T14:31:52;16.17;;;8.50;;
36301;SDS011;22334;53.022;18.606;2022-09-29T14:34:20;20.75;;;13.60;;
36301;SDS011;22334;53.022;18.606;2022-09-29T14:36:47;25.25;;;15.98;;
36301;SDS011;22334;53.022;18.606;2022-09-29T14:39:14;27.25;;;15.30;;
36301;SDS011;22334;53.022;18.606;2022-09-29T14:41:41;24.17;;;15.60;;
36301;SDS011;22334;53.022;18.606;2022-09-29T14:44:10;14.55;;;8.90;;
36301;SDS011;22334;53.022;18.606;2022-09-29T14:52:59;36.25;;;23.13;;
36301;SDS011;22334;53.022;18.606;2022-09-29T14:55:29;16.83;;;9.10;;
36301;SDS011;22334;53.022;18.606;2022-09-29T14:58:50;19.55;;;8.57;;
36301;SDS011;22334;53.022;18.606;2022-09-29T15:01:27;8.88;;;6.88;;
36301;SDS011;22334;53.022;18.606;2022-09-29T15:04:21;20.40;;;12.95;;
36301;SDS011;22334;53.022;18.606;2022-09-29T15:06:50;19.10;;;14.52;;
36301;SDS011;22334;53.022;18.606;2022-09-29T15:09:17;10.77;;;7.55;;
36301;SDS011;22334;53.022;18.606;2022-09-29T15:11:48;10.88;;;6.05;;
36301;SDS011;22334;53.022;18.606;2022-09-29T15:14:25;10.52;;;6.40;;
36301;SDS011;22334;53.022;18.606;2022-09-29T15:17:07;7.50;;;5.75;;
36301;SDS011;22334;53.022;18.606;2022-09-29T15:27:50;9.95;;;5.97;;
36301;SDS011;22334;53.022;18.606;2022-09-29T15:30:17;18.25;;;6.57;;
36301;SDS011;22334;53.022;18.606;2022-09-29T15:32:45;11.30;;;6.80;;
36301;SDS011;22334;53.022;18.606;2022-09-29T15:35:13;9.13;;;6.28;;
36301;SDS011;22334;53.022;18.606;2022-09-29T15:40:14;8.55;;;5.75;;
36301;SDS011;22334;53.022;18.606;2022-09-29T15:42:44;9.30;;;5.50;;
36301;SDS011;22334;53.022;18.606;2022-09-29T15:45:21;12.10;;;5.85;;
36301;SDS011;22334;53.022;18.606;2022-09-29T15:47:57;13.23;;;6.13;;
36301;SDS011;22334;53.022;18.606;2022-09-29T15:50:27;10.32;;;5.90;;
36301;SDS011;22334;53.022;18.606;2022-09-29T15:52:57;9.77;;;5.82;;
36301;SDS011;22334;53.022;18.606;2022-09-29T15:55:27;11.43;;;6.95;;
36301;SDS011;22334;53.022;18.606;2022-09-29T15:57:53;10.70;;;7.95;;
36301;SDS011;22334;53.022;18.606;2022-09-29T16:06:05;16.70;;;10.02;;
36301;SDS011;22334;53.022;18.606;2022-09-29T16:08:37;19.70;;;12.10;;
36301;SDS011;22334;53.022;18.606;2022-09-29T16:11:13;19.35;;;10.50;;
36301;SDS011;22334;53.022;18.606;2022-09-29T16:13:45;18.92;;;11.88;;
36301;SDS011;22334;53.022;18.606;2022-09-29T16:16:15;23.25;;;13.57;;
36301;SDS011;22334;53.022;18.606;2022-09-29T16:18:41;17.90;;;12.07;;
36301;SDS011;22334;53.022;18.606;2022-09-29T16:21:17;21.92;;;14.73;;
36301;SDS011;22334;53.022;18.606;2022-09-29T16:31:40;70.25;;;39.33;;
36301;SDS011;22334;53.022;18.606;2022-09-29T16:39:15;56.35;;;34.10;;
36301;SDS011;22334;53.022;18.606;2022-09-29T16:41:46;55.40;;;31.38;;
36301;SDS011;22334;53.022;18.606;2022-09-29T16:47:02;30.92;;;20.55;;
36301;SDS011;22334;53.022;18.606;2022-09-29T16:49:45;24.45;;;15.48;;
36301;SDS011;22334;53.022;18.606;2022-09-29T16:52:14;20.13;;;13.55;;
36301;SDS011;22334;53.022;18.606;2022-09-29T16:54:48;22.60;;;12.30;;
36301;SDS011;22334;53.022;18.606;2022-09-29T16:57:20;17.60;;;11.95;;
36301;SDS011;22334;53.022;18.606;2022-09-29T17:03:03;19.15;;;11.75;;
36301;SDS011;22334;53.022;18.606;2022-09-29T17:05:30;21.23;;;11.20;;
36301;SDS011;22334;53.022;18.606;2022-09-29T17:08:03;16.27;;;10.35;;
36301;SDS011;22334;53.022;18.606;2022-09-29T17:10:32;27.73;;;14.07;;
36301;SDS011;22334;53.022;18.606;2022-09-29T17:13:09;29.85;;;16.27;;
36301;SDS011;22334;53.022;18.606;2022-09-29T17:15:44;26.27;;;16.08;;
36301;SDS011;22334;53.022;18.606;2022-09-29T17:18:19;27.45;;;15.85;;
36301;SDS011;22334;53.022;18.606;2022-09-29T17:21:08;29.13;;;15.43;;
36301;SDS011;22334;53.022;18.606;2022-09-29T17:23:36;29.52;;;15.35;;
36301;SDS011;22334;53.022;18.606;2022-09-29T17:26:07;26.88;;;15.30;;
36301;SDS011;22334;53.022;18.606;2022-09-29T17:29:09;24.20;;;14.38;;
36301;SDS011;22334;53.022;18.606;2022-09-29T17:32:55;24.40;;;13.88;;
36301;SDS011;22334;53.022;18.606;2022-09-29T17:35:45;27.70;;;14.40;;
36301;SDS011;22334;53.022;18.606;2022-09-29T17:38:49;25.48;;;15.07;;
36301;SDS011;22334;53.022;18.606;2022-09-29T17:41:19;29.40;;;14.30;;
36301;SDS011;22334;53.022;18.606;2022-09-29T17:43:59;25.13;;;15.38;;
36301;SDS011;22334;53.022;18.606;2022-09-29T17:46:39;30.42;;;16.70;;
36301;SDS011;22334;53.022;18.606;2022-09-29T17:49:53;26.25;;;16.98;;
36301;SDS011;22334;53.022;18.606;2022-09-29T17:52:20;38.78;;;21.05;;